• Join FlightAware (Why Join?)
  • Login
  • US Flag 
11:13AM EDT


 

Airport Tracker/Info


-or-


 

Live Flight TrackerFlight Track Log ✈ CCA1754 ✈ 08-Apr-2013 ✈ ZPPP / KMG - ZSHC / HGH

Flight Track Log - Related Links

Times and Time Zones

All times are in EDT time to prevent confusion due to time zone crossing. See the CCA1754 flight status page for this flight to view local times or setup timezone preferences in your user account.

Time Position Orientation Groundspeed Altitude Reporting Facility
EDT Latitude Longitude Course Direction KTS MPH feet Rate Location/Type
09:24AM 25.2716 103.3896 68° East  Level Estimated
09:25AM 25.3138 103.5049 68° East  Level Estimated
09:26AM 25.3559 103.6203 68° East  Level Estimated
09:27AM 25.3979 103.7358 68° East  Level Estimated
09:28AM 25.4398 103.8513 68° East  Level Estimated
09:29AM 25.4816 103.9670 68° East  Level Estimated
09:30AM 25.5234 104.0827 68° East  Level Estimated
09:31AM 25.5650 104.1985 68° East  Level Estimated
09:32AM 25.6066 104.3143 68° East  Level Estimated
09:33AM 25.6481 104.4303 68° East  Level Estimated
09:34AM 25.6894 104.5463 68° East  Level Estimated
09:35AM 25.7307 104.6624 68° East  Level Estimated
09:36AM 25.7719 104.7786 68° East  Level Estimated
09:37AM 25.8130 104.8949 69° East  Level Estimated
09:38AM 25.8540 105.0113 69° East  Level Estimated
09:39AM 25.8949 105.1277 69° East  Level Estimated
09:40AM 25.9357 105.2442 69° East  Level Estimated
09:41AM 25.9765 105.3608 69° East  Level Estimated
09:42AM 26.0171 105.4775 69° East  Level Estimated
09:43AM 26.0576 105.5943 69° East  Level Estimated
09:44AM 26.0981 105.7111 69° East  Level Estimated
09:45AM 26.1385 105.8280 69° East  Level Estimated
09:46AM 26.1787 105.9450 69° East  Level Estimated
09:47AM 26.2189 106.0621 69° East  Level Estimated
09:48AM 26.2589 106.1793 69° East  Level Estimated
09:49AM 26.2989 106.2965 69° East  Level Estimated
09:50AM 26.3388 106.4139 69° East  Level Estimated
09:51AM 26.3786 106.5313 69° East  Level Estimated
09:52AM 26.4182 106.6488 69° East  Level Estimated
09:53AM 26.4578 106.7663 69° East  Level Estimated
09:54AM 26.4973 106.8840 69° East  Level Estimated
09:55AM 26.5367 107.0017 69° East  Level Estimated
09:56AM 26.5760 107.1195 70° East  Level Estimated
09:57AM 26.6152 107.2374 70° East  Level Estimated
09:58AM 26.6543 107.3554 70° East  Level Estimated
09:59AM 26.6933 107.4734 70° East  Level Estimated
10:00AM 26.7323 107.5916 70° East  Level Estimated
10:01AM 26.7711 107.7098 70° East  Level Estimated
10:02AM 26.8098 107.8281 70° East  Level Estimated
10:03AM 26.8484 107.9464 70° East  Level Estimated
10:04AM 26.8869 108.0649 70° East  Level Estimated
10:05AM 26.9253 108.1834 70° East  Level Estimated
10:06AM 26.9637 108.3021 70° East  Level Estimated
10:07AM 27.0019 108.4208 70° East  Level Estimated
10:08AM 27.0400 108.5396 70° East  Level Estimated
10:09AM 27.0780 108.6584 70° East  Level Estimated
10:10AM 27.1159 108.7774 70° East  Level Estimated
10:11AM 27.1538 108.8964 70° East  Level Estimated
10:12AM 27.1915 109.0155 70° East  Level Estimated
10:13AM 27.2291 109.1347 70° East  Level Estimated
10:14AM 27.2666 109.2539 70° East  Level Estimated
10:15AM 27.3040 109.3733 71° East  Level Estimated
10:16AM 27.3414 109.4927 71° East  Level Estimated
10:17AM 27.3786 109.6122 71° East  Level Estimated
10:18AM 27.4157 109.7318 71° East  Level Estimated
10:19AM 27.4527 109.8514 71° East  Level Estimated
10:20AM 27.4896 109.9712 71° East  Level Estimated
10:21AM 27.5264 110.0910 71° East  Level Estimated
10:22AM 27.5631 110.2109 71° East  Level Estimated
10:23AM 27.5997 110.3309 71° East  Level Estimated
10:24AM 27.6362 110.4509 71° East  Level Estimated
10:25AM 27.6726 110.5711 71° East  Level Estimated
10:26AM 27.7089 110.6913 71° East  Level Estimated
10:27AM 27.7451 110.8116 71° East  Level Estimated
10:28AM 27.7811 110.9320 71° East  Level Estimated
10:29AM 27.8171 111.0525 71° East  Level Estimated
10:30AM 27.8530 111.1730 71° East  Level Estimated
10:31AM 27.8888 111.2936 71° East  Level Estimated
10:32AM 27.9244 111.4143 71° East  Level Estimated
10:33AM 27.9600 111.5351 72° East  Level Estimated
10:34AM 27.9954 111.6560 72° East  Level Estimated
10:35AM 28.0308 111.7769 72° East  Level Estimated
10:36AM 28.0660 111.8979 72° East  Level Estimated
10:37AM 28.1012 112.0190 72° East  Level Estimated
10:38AM 28.1362 112.1402 72° East  Level Estimated
10:39AM 28.1711 112.2615 72° East  Level Estimated
10:40AM 28.2059 112.3828 72° East  Level Estimated
10:41AM 28.2406 112.5042 72° East  Level Estimated
10:42AM 28.2752 112.6257 72° East  Level Estimated
10:43AM 28.3097 112.7473 72° East  Level Estimated
10:44AM 28.3441 112.8690 72° East  Level Estimated
10:45AM 28.3784 112.9907 72° East  Level Estimated
10:46AM 28.4125 113.1125 72° East  Level Estimated
10:47AM 28.4466 113.2344 72° East  Level Estimated
10:48AM 28.4806 113.3564 72° East  Level Estimated
10:49AM 28.5144 113.4784 72° East  Level Estimated
10:50AM 28.5481 113.6005 73° East  Level Estimated
10:51AM 28.5817 113.7227 73° East  Level Estimated
10:52AM 28.6152 113.8450 73° East  Level Estimated
10:53AM 28.6486 113.9674 73° East  Level Estimated
10:54AM 28.6819 114.0898 73° East  Level Estimated
10:55AM 28.7151 114.2123 73° East  Level Estimated
10:56AM 28.7482 114.3349 73° East  Level Estimated
10:57AM 28.7812 114.4576 73° East  Level Estimated
10:58AM 28.8140 114.5803 73° East  Level Estimated
10:59AM 28.8467 114.7031 73° East  Level Estimated
11:00AM 28.8794 114.8260 73° East  Level Estimated
11:01AM 28.9119 114.9490 73° East  Level Estimated
11:02AM 28.9443 115.0721 73° East  Level Estimated
11:03AM 28.9766 115.1952 73° East  Level Estimated
11:04AM 29.0088 115.3184 73° East  Level Estimated
11:05AM 29.0408 115.4417 73° East  Level Estimated
11:06AM 29.0728 115.5651 73° East  Level Estimated
11:07AM 29.1046 115.6885 74° East  Level Estimated
11:08AM 29.1364 115.8120 74° East  Level Estimated
11:09AM 29.1680 115.9356 74° East  Level Estimated
11:10AM 29.1995 116.0593 74° East  Level Estimated
11:11AM 29.2309 116.1830 74° East  Level Estimated
11:12AM 29.2622 116.3068 74° East  Level Estimated
11:13AM 29.2933 116.4307 74° East  Level Estimated
11:14AM 29.3244 116.5547 74° East  Level Estimated
11:15AM 29.3553 116.6788 74° East  Level Estimated
11:16AM 29.3861 116.8029 74° East  Level Estimated
11:17AM 29.4168 116.9271 74° East  Level Estimated
11:18AM 29.4474 117.0514 74° East  Level Estimated
11:19AM 29.4779 117.1757 74° East  Level Estimated
11:20AM 29.5082 117.3001 74° East  Level Estimated
11:21AM 29.5385 117.4246 74° East  Level Estimated
11:22AM 29.5686 117.5492 74° East  Level Estimated
11:23AM 29.5986 117.6738 74° East  Level Estimated
11:24AM 29.6285 117.7985 75° East  Level Estimated
11:25AM 29.6583 117.9233 75° East  Level Estimated
11:26AM 29.6879 118.0482 75° East  Level Estimated
11:27AM 29.7175 118.1731 75° East  Level Estimated
11:28AM 29.7469 118.2981 75° East  Level Estimated
11:29AM 29.7762 118.4232 75° East  Level Estimated
11:30AM 29.8054 118.5484 75° East  Level Estimated
11:31AM 29.8345 118.6736 75° East  Level Estimated
11:32AM 29.8634 118.7989 75° East  Level Estimated
11:33AM 29.8922 118.9243 75° East  Level Estimated
11:34AM 29.9209 119.0497 75° East  Level Estimated
11:35AM 29.9496 119.1753 75° East  Level Estimated